sensor_id;sensor_type;location;lat;lon;timestamp;P1;durP1;ratioP1;P2;durP2;ratioP2
23868;SDS011;12115;47.128;15.422;2023-04-06T00:01:39;6.97;;;2.47;;
23868;SDS011;12115;47.128;15.422;2023-04-06T00:04:08;5.10;;;2.30;;
23868;SDS011;12115;47.128;15.422;2023-04-06T00:06:36;5.40;;;2.80;;
23868;SDS011;12115;47.128;15.422;2023-04-06T00:09:03;4.20;;;2.15;;
23868;SDS011;12115;47.128;15.422;2023-04-06T00:11:31;4.88;;;2.30;;
23868;SDS011;12115;47.128;15.422;2023-04-06T00:13:58;6.32;;;2.47;;
23868;SDS011;12115;47.128;15.422;2023-04-06T00:16:26;3.15;;;2.38;;
23868;SDS011;12115;47.128;15.422;2023-04-06T00:18:56;7.50;;;2.58;;
23868;SDS011;12115;47.128;15.422;2023-04-06T00:21:24;4.35;;;2.60;;
23868;SDS011;12115;47.128;15.422;2023-04-06T00:23:52;4.97;;;2.47;;
23868;SDS011;12115;47.128;15.422;2023-04-06T00:26:19;7.25;;;2.78;;
23868;SDS011;12115;47.128;15.422;2023-04-06T00:28:48;5.45;;;2.75;;
23868;SDS011;12115;47.128;15.422;2023-04-06T00:31:18;3.63;;;1.98;;
23868;SDS011;12115;47.128;15.422;2023-04-06T00:33:47;5.32;;;2.40;;
23868;SDS011;12115;47.128;15.422;2023-04-06T00:36:15;3.65;;;2.45;;
23868;SDS011;12115;47.128;15.422;2023-04-06T00:38:43;3.60;;;2.30;;
23868;SDS011;12115;47.128;15.422;2023-04-06T00:41:10;3.72;;;2.45;;
23868;SDS011;12115;47.128;15.422;2023-04-06T00:43:39;3.50;;;2.13;;
23868;SDS011;12115;47.128;15.422;2023-04-06T00:46:07;4.95;;;2.25;;
23868;SDS011;12115;47.128;15.422;2023-04-06T00:48:35;5.88;;;2.47;;
23868;SDS011;12115;47.128;15.422;2023-04-06T00:51:02;4.65;;;2.10;;
23868;SDS011;12115;47.128;15.422;2023-04-06T00:53:30;4.82;;;2.38;;
23868;SDS011;12115;47.128;15.422;2023-04-06T00:56:00;4.35;;;2.25;;
23868;SDS011;12115;47.128;15.422;2023-04-06T00:58:33;2.63;;;2.00;;
23868;SDS011;12115;47.128;15.422;2023-04-06T01:01:05;7.95;;;2.67;;
23868;SDS011;12115;47.128;15.422;2023-04-06T01:03:34;3.65;;;2.33;;
23868;SDS011;12115;47.128;15.422;2023-04-06T01:06:01;6.35;;;2.53;;
23868;SDS011;12115;47.128;15.422;2023-04-06T01:08:35;5.00;;;2.75;;
23868;SDS011;12115;47.128;15.422;2023-04-06T01:11:17;4.05;;;2.42;;
23868;SDS011;12115;47.128;15.422;2023-04-06T01:13:46;3.08;;;2.10;;
23868;SDS011;12115;47.128;15.422;2023-04-06T01:16:34;3.28;;;2.13;;
23868;SDS011;12115;47.128;15.422;2023-04-06T01:19:10;5.13;;;2.63;;
23868;SDS011;12115;47.128;15.422;2023-04-06T01:21:45;5.35;;;2.42;;
23868;SDS011;12115;47.128;15.422;2023-04-06T01:24:40;5.03;;;2.53;;
23868;SDS011;12115;47.128;15.422;2023-04-06T01:27:07;7.65;;;2.38;;
23868;SDS011;12115;47.128;15.422;2023-04-06T01:29:51;4.72;;;2.00;;
23868;SDS011;12115;47.128;15.422;2023-04-06T01:32:37;6.03;;;2.22;;
23868;SDS011;12115;47.128;15.422;2023-04-06T01:35:06;5.18;;;2.53;;
23868;SDS011;12115;47.128;15.422;2023-04-06T01:37:40;4.18;;;2.50;;
23868;SDS011;12115;47.128;15.422;2023-04-06T01:42:47;4.43;;;2.10;;
23868;SDS011;12115;47.128;15.422;2023-04-06T01:45:24;6.82;;;3.00;;
23868;SDS011;12115;47.128;15.422;2023-04-06T01:47:57;3.28;;;1.98;;
23868;SDS011;12115;47.128;15.422;2023-04-06T01:50:26;4.30;;;2.92;;
23868;SDS011;12115;47.128;15.422;2023-04-06T01:52:53;3.90;;;2.38;;
23868;SDS011;12115;47.128;15.422;2023-04-06T01:55:24;2.72;;;1.90;;
23868;SDS011;12115;47.128;15.422;2023-04-06T01:58:12;3.70;;;1.83;;
23868;SDS011;12115;47.128;15.422;2023-04-06T02:00:39;3.65;;;1.92;;
23868;SDS011;12115;47.128;15.422;2023-04-06T02:03:08;3.28;;;2.47;;
23868;SDS011;12115;47.128;15.422;2023-04-06T02:05:36;3.00;;;2.30;;
23868;SDS011;12115;47.128;15.422;2023-04-06T02:08:16;3.95;;;2.35;;
23868;SDS011;12115;47.128;15.422;2023-04-06T02:10:45;4.28;;;1.88;;
23868;SDS011;12115;47.128;15.422;2023-04-06T02:13:22;4.15;;;2.70;;
23868;SDS011;12115;47.128;15.422;2023-04-06T02:15:52;4.10;;;2.17;;
23868;SDS011;12115;47.128;15.422;2023-04-06T02:18:20;4.10;;;2.58;;
23868;SDS011;12115;47.128;15.422;2023-04-06T02:20:47;4.55;;;2.58;;
23868;SDS011;12115;47.128;15.422;2023-04-06T02:23:15;3.50;;;2.20;;
23868;SDS011;12115;47.128;15.422;2023-04-06T02:25:43;6.20;;;2.35;;
23868;SDS011;12115;47.128;15.422;2023-04-06T02:28:10;4.13;;;2.13;;
23868;SDS011;12115;47.128;15.422;2023-04-06T02:30:37;4.85;;;1.80;;
23868;SDS011;12115;47.128;15.422;2023-04-06T02:33:05;4.80;;;2.00;;
23868;SDS011;12115;47.128;15.422;2023-04-06T02:35:40;6.40;;;2.15;;
23868;SDS011;12115;47.128;15.422;2023-04-06T02:38:08;3.17;;;2.00;;
23868;SDS011;12115;47.128;15.422;2023-04-06T02:40:35;3.00;;;2.05;;
23868;SDS011;12115;47.128;15.422;2023-04-06T02:45:45;3.17;;;2.00;;
23868;SDS011;12115;47.128;15.422;2023-04-06T02:48:13;4.57;;;1.88;;
23868;SDS011;12115;47.128;15.422;2023-04-06T02:50:44;3.50;;;2.20;;
23868;SDS011;12115;47.128;15.422;2023-04-06T02:53:12;2.92;;;2.03;;
23868;SDS011;12115;47.128;15.422;2023-04-06T02:55:40;3.03;;;1.90;;
23868;SDS011;12115;47.128;15.422;2023-04-06T02:58:08;4.82;;;2.00;;
23868;SDS011;12115;47.128;15.422;2023-04-06T03:00:43;5.43;;;2.10;;
23868;SDS011;12115;47.128;15.422;2023-04-06T03:03:10;3.55;;;1.85;;
23868;SDS011;12115;47.128;15.422;2023-04-06T03:05:39;5.40;;;2.63;;
23868;SDS011;12115;47.128;15.422;2023-04-06T03:08:08;5.93;;;2.40;;
23868;SDS011;12115;47.128;15.422;2023-04-06T03:10:42;4.95;;;2.85;;
23868;SDS011;12115;47.128;15.422;2023-04-06T03:13:10;2.72;;;2.00;;
23868;SDS011;12115;47.128;15.422;2023-04-06T03:15:47;3.92;;;2.17;;
23868;SDS011;12115;47.128;15.422;2023-04-06T03:18:20;3.53;;;1.75;;
23868;SDS011;12115;47.128;15.422;2023-04-06T03:20:52;7.63;;;2.50;;
23868;SDS011;12115;47.128;15.422;2023-04-06T03:23:29;4.50;;;2.60;;
23868;SDS011;12115;47.128;15.422;2023-04-06T03:26:00;8.18;;;3.92;;
23868;SDS011;12115;47.128;15.422;2023-04-06T03:28:29;7.00;;;4.00;;
23868;SDS011;12115;47.128;15.422;2023-04-06T03:31:00;5.57;;;3.30;;
23868;SDS011;12115;47.128;15.422;2023-04-06T03:33:46;7.43;;;4.22;;
23868;SDS011;12115;47.128;15.422;2023-04-06T03:36:24;5.00;;;2.67;;
23868;SDS011;12115;47.128;15.422;2023-04-06T03:38:55;5.78;;;3.10;;
23868;SDS011;12115;47.128;15.422;2023-04-06T03:41:23;4.95;;;2.78;;
23868;SDS011;12115;47.128;15.422;2023-04-06T03:44:00;6.82;;;3.38;;
23868;SDS011;12115;47.128;15.422;2023-04-06T03:46:27;4.90;;;2.90;;
23868;SDS011;12115;47.128;15.422;2023-04-06T03:48:57;5.03;;;2.58;;
23868;SDS011;12115;47.128;15.422;2023-04-06T03:51:25;7.03;;;3.10;;
23868;SDS011;12115;47.128;15.422;2023-04-06T03:53:53;5.97;;;3.20;;
23868;SDS011;12115;47.128;15.422;2023-04-06T03:56:20;4.63;;;2.50;;
23868;SDS011;12115;47.128;15.422;2023-04-06T03:58:48;4.43;;;2.38;;
23868;SDS011;12115;47.128;15.422;2023-04-06T04:01:20;6.13;;;2.92;;
23868;SDS011;12115;47.128;15.422;2023-04-06T04:03:47;5.82;;;2.83;;
23868;SDS011;12115;47.128;15.422;2023-04-06T04:06:18;3.08;;;2.25;;
23868;SDS011;12115;47.128;15.422;2023-04-06T04:08:45;3.00;;;1.95;;
23868;SDS011;12115;47.128;15.422;2023-04-06T04:11:13;5.90;;;2.58;;
23868;SDS011;12115;47.128;15.422;2023-04-06T04:13:46;4.10;;;2.45;;
23868;SDS011;12115;47.128;15.422;2023-04-06T04:16:14;3.63;;;1.88;;
23868;SDS011;12115;47.128;15.422;2023-04-06T04:18:41;2.97;;;2.10;;
23868;SDS011;12115;47.128;15.422;2023-04-06T04:21:10;3.67;;;2.35;;
23868;SDS011;12115;47.128;15.422;2023-04-06T04:23:38;3.28;;;2.05;;
23868;SDS011;12115;47.128;15.422;2023-04-06T04:26:05;4.68;;;2.33;;
23868;SDS011;12115;47.128;15.422;2023-04-06T04:28:33;2.35;;;1.70;;
23868;SDS011;12115;47.128;15.422;2023-04-06T04:31:01;5.63;;;2.78;;
23868;SDS011;12115;47.128;15.422;2023-04-06T04:33:31;4.82;;;2.10;;
23868;SDS011;12115;47.128;15.422;2023-04-06T04:36:02;5.65;;;2.65;;
23868;SDS011;12115;47.128;15.422;2023-04-06T04:38:36;3.72;;;2.28;;
23868;SDS011;12115;47.128;15.422;2023-04-06T04:41:04;2.17;;;1.75;;
23868;SDS011;12115;47.128;15.422;2023-04-06T04:43:35;2.15;;;1.42;;
23868;SDS011;12115;47.128;15.422;2023-04-06T04:46:03;5.35;;;2.65;;
23868;SDS011;12115;47.128;15.422;2023-04-06T04:48:36;3.30;;;1.95;;
23868;SDS011;12115;47.128;15.422;2023-04-06T04:51:08;3.67;;;2.17;;
23868;SDS011;12115;47.128;15.422;2023-04-06T04:54:02;3.00;;;1.92;;
23868;SDS011;12115;47.128;15.422;2023-04-06T04:56:31;2.58;;;2.10;;
23868;SDS011;12115;47.128;15.422;2023-04-06T04:59:12;2.85;;;1.73;;
23868;SDS011;12115;47.128;15.422;2023-04-06T05:01:47;3.38;;;2.50;;
23868;SDS011;12115;47.128;15.422;2023-04-06T05:04:24;6.57;;;2.60;;
23868;SDS011;12115;47.128;15.422;2023-04-06T05:07:07;5.45;;;1.95;;
23868;SDS011;12115;47.128;15.422;2023-04-06T05:09:38;4.03;;;2.13;;
23868;SDS011;12115;47.128;15.422;2023-04-06T05:12:06;4.35;;;2.75;;
23868;SDS011;12115;47.128;15.422;2023-04-06T05:14:42;4.68;;;2.25;;
23868;SDS011;12115;47.128;15.422;2023-04-06T05:17:15;8.23;;;3.42;;
23868;SDS011;12115;47.128;15.422;2023-04-06T05:19:43;5.03;;;2.70;;
23868;SDS011;12115;47.128;15.422;2023-04-06T05:22:16;4.57;;;2.42;;
23868;SDS011;12115;47.128;15.422;2023-04-06T05:24:52;4.38;;;2.72;;
23868;SDS011;12115;47.128;15.422;2023-04-06T05:27:21;10.35;;;3.08;;
23868;SDS011;12115;47.128;15.422;2023-04-06T05:29:49;3.13;;;2.28;;
23868;SDS011;12115;47.128;15.422;2023-04-06T05:32:18;10.48;;;2.83;;
23868;SDS011;12115;47.128;15.422;2023-04-06T05:34:50;6.95;;;2.78;;
23868;SDS011;12115;47.128;15.422;2023-04-06T05:37:19;7.10;;;3.50;;
23868;SDS011;12115;47.128;15.422;2023-04-06T05:39:48;8.85;;;3.50;;
23868;SDS011;12115;47.128;15.422;2023-04-06T05:42:17;10.70;;;4.38;;
23868;SDS011;12115;47.128;15.422;2023-04-06T05:44:56;8.73;;;3.90;;
23868;SDS011;12115;47.128;15.422;2023-04-06T05:47:25;7.20;;;3.42;;
23868;SDS011;12115;47.128;15.422;2023-04-06T05:50:02;8.07;;;2.65;;
23868;SDS011;12115;47.128;15.422;2023-04-06T05:52:34;6.50;;;2.97;;
23868;SDS011;12115;47.128;15.422;2023-04-06T05:55:02;18.85;;;4.93;;
23868;SDS011;12115;47.128;15.422;2023-04-06T05:57:31;14.70;;;5.00;;
23868;SDS011;12115;47.128;15.422;2023-04-06T05:59:59;10.15;;;5.03;;
23868;SDS011;12115;47.128;15.422;2023-04-06T06:02:37;12.95;;;4.43;;
23868;SDS011;12115;47.128;15.422;2023-04-06T06:05:26;9.45;;;3.83;;
23868;SDS011;12115;47.128;15.422;2023-04-06T06:08:01;6.80;;;2.83;;
23868;SDS011;12115;47.128;15.422;2023-04-06T06:10:29;7.15;;;3.35;;
23868;SDS011;12115;47.128;15.422;2023-04-06T06:12:57;5.72;;;2.97;;
23868;SDS011;12115;47.128;15.422;2023-04-06T06:15:27;8.63;;;3.58;;
23868;SDS011;12115;47.128;15.422;2023-04-06T06:17:55;10.68;;;3.22;;
23868;SDS011;12115;47.128;15.422;2023-04-06T06:20:24;9.55;;;3.08;;
23868;SDS011;12115;47.128;15.422;2023-04-06T06:22:53;6.00;;;3.50;;
23868;SDS011;12115;47.128;15.422;2023-04-06T06:25:21;11.07;;;3.78;;
23868;SDS011;12115;47.128;15.422;2023-04-06T06:27:49;7.85;;;3.20;;
23868;SDS011;12115;47.128;15.422;2023-04-06T06:30:18;8.65;;;3.70;;
23868;SDS011;12115;47.128;15.422;2023-04-06T06:32:51;6.97;;;3.35;;
23868;SDS011;12115;47.128;15.422;2023-04-06T06:35:18;8.38;;;3.65;;
23868;SDS011;12115;47.128;15.422;2023-04-06T06:37:47;6.47;;;3.80;;
23868;SDS011;12115;47.128;15.422;2023-04-06T06:40:18;7.30;;;3.65;;
23868;SDS011;12115;47.128;15.422;2023-04-06T06:42:51;6.25;;;3.90;;
23868;SDS011;12115;47.128;15.422;2023-04-06T06:45:45;7.70;;;3.75;;
23868;SDS011;12115;47.128;15.422;2023-04-06T06:48:13;7.70;;;4.30;;
23868;SDS011;12115;47.128;15.422;2023-04-06T06:50:41;11.13;;;4.00;;
23868;SDS011;12115;47.128;15.422;2023-04-06T06:53:08;15.05;;;4.57;;
23868;SDS011;12115;47.128;15.422;2023-04-06T06:55:36;9.02;;;4.28;;
23868;SDS011;12115;47.128;15.422;2023-04-06T06:58:03;7.47;;;4.00;;
23868;SDS011;12115;47.128;15.422;2023-04-06T07:00:33;6.57;;;4.20;;
23868;SDS011;12115;47.128;15.422;2023-04-06T07:03:01;7.50;;;4.25;;
23868;SDS011;12115;47.128;15.422;2023-04-06T07:05:29;8.10;;;4.35;;
23868;SDS011;12115;47.128;15.422;2023-04-06T07:07:58;5.90;;;3.85;;
23868;SDS011;12115;47.128;15.422;2023-04-06T07:13:30;10.05;;;3.55;;
23868;SDS011;12115;47.128;15.422;2023-04-06T07:15:59;5.15;;;3.10;;
23868;SDS011;12115;47.128;15.422;2023-04-06T07:18:28;7.43;;;3.47;;
23868;SDS011;12115;47.128;15.422;2023-04-06T07:21:16;11.98;;;4.35;;
23868;SDS011;12115;47.128;15.422;2023-04-06T07:23:45;16.85;;;4.32;;
23868;SDS011;12115;47.128;15.422;2023-04-06T07:26:15;9.02;;;3.50;;
23868;SDS011;12115;47.128;15.422;2023-04-06T07:28:45;11.77;;;3.72;;
23868;SDS011;12115;47.128;15.422;2023-04-06T07:31:13;8.88;;;3.90;;
23868;SDS011;12115;47.128;15.422;2023-04-06T07:33:40;10.55;;;3.60;;
23868;SDS011;12115;47.128;15.422;2023-04-06T07:36:14;8.70;;;3.15;;
23868;SDS011;12115;47.128;15.422;2023-04-06T07:38:42;8.85;;;3.72;;
23868;SDS011;12115;47.128;15.422;2023-04-06T07:41:10;5.68;;;3.83;;
23868;SDS011;12115;47.128;15.422;2023-04-06T07:43:38;7.75;;;3.80;;
23868;SDS011;12115;47.128;15.422;2023-04-06T07:46:06;7.00;;;3.10;;
23868;SDS011;12115;47.128;15.422;2023-04-06T07:48:34;9.15;;;2.38;;
23868;SDS011;12115;47.128;15.422;2023-04-06T07:53:59;3.67;;;2.30;;
23868;SDS011;12115;47.128;15.422;2023-04-06T07:56:26;5.53;;;2.20;;
23868;SDS011;12115;47.128;15.422;2023-04-06T07:58:53;4.53;;;2.30;;
23868;SDS011;12115;47.128;15.422;2023-04-06T08:04:44;5.53;;;2.25;;
23868;SDS011;12115;47.128;15.422;2023-04-06T08:07:14;2.92;;;2.17;;
23868;SDS011;12115;47.128;15.422;2023-04-06T08:09:42;3.83;;;2.20;;
23868;SDS011;12115;47.128;15.422;2023-04-06T08:12:10;3.53;;;1.98;;
23868;SDS011;12115;47.128;15.422;2023-04-06T08:14:37;3.58;;;2.15;;
23868;SDS011;12115;47.128;15.422;2023-04-06T08:17:12;4.70;;;2.20;;
23868;SDS011;12115;47.128;15.422;2023-04-06T08:19:42;6.88;;;2.50;;
23868;SDS011;12115;47.128;15.422;2023-04-06T08:22:10;3.80;;;2.10;;
23868;SDS011;12115;47.128;15.422;2023-04-06T08:24:40;3.70;;;2.10;;
23868;SDS011;12115;47.128;15.422;2023-04-06T08:27:10;4.90;;;1.95;;
23868;SDS011;12115;47.128;15.422;2023-04-06T08:29:40;5.10;;;2.17;;
23868;SDS011;12115;47.128;15.422;2023-04-06T08:32:10;5.07;;;1.77;;
23868;SDS011;12115;47.128;15.422;2023-04-06T08:34:38;3.15;;;2.17;;
23868;SDS011;12115;47.128;15.422;2023-04-06T08:37:06;5.03;;;1.70;;
23868;SDS011;12115;47.128;15.422;2023-04-06T08:42:26;6.45;;;2.20;;
23868;SDS011;12115;47.128;15.422;2023-04-06T08:44:58;4.43;;;2.40;;
23868;SDS011;12115;47.128;15.422;2023-04-06T08:47:26;4.25;;;2.20;;
23868;SDS011;12115;47.128;15.422;2023-04-06T08:49:54;3.42;;;2.05;;
23868;SDS011;12115;47.128;15.422;2023-04-06T08:52:23;3.13;;;1.98;;
23868;SDS011;12115;47.128;15.422;2023-04-06T08:57:59;3.20;;;2.13;;
23868;SDS011;12115;47.128;15.422;2023-04-06T09:00:27;3.30;;;2.10;;
23868;SDS011;12115;47.128;15.422;2023-04-06T09:02:56;2.47;;;1.98;;
23868;SDS011;12115;47.128;15.422;2023-04-06T09:05:25;3.58;;;2.00;;
23868;SDS011;12115;47.128;15.422;2023-04-06T09:07:53;3.88;;;2.00;;
23868;SDS011;12115;47.128;15.422;2023-04-06T09:10:20;3.70;;;2.03;;
23868;SDS011;12115;47.128;15.422;2023-04-06T09:12:49;3.00;;;1.88;;
23868;SDS011;12115;47.128;15.422;2023-04-06T09:15:18;5.55;;;2.25;;
23868;SDS011;12115;47.128;15.422;2023-04-06T09:17:50;4.20;;;2.00;;
23868;SDS011;12115;47.128;15.422;2023-04-06T09:20:24;2.58;;;1.83;;
23868;SDS011;12115;47.128;15.422;2023-04-06T09:22:53;5.90;;;2.22;;
23868;SDS011;12115;47.128;15.422;2023-04-06T09:25:22;4.55;;;2.13;;
23868;SDS011;12115;47.128;15.422;2023-04-06T09:28:00;3.38;;;2.08;;
23868;SDS011;12115;47.128;15.422;2023-04-06T09:30:30;3.97;;;2.15;;
23868;SDS011;12115;47.128;15.422;2023-04-06T09:32:57;3.65;;;1.67;;
23868;SDS011;12115;47.128;15.422;2023-04-06T09:35:27;3.38;;;1.55;;
23868;SDS011;12115;47.128;15.422;2023-04-06T09:37:57;3.83;;;1.83;;
23868;SDS011;12115;47.128;15.422;2023-04-06T09:40:25;3.20;;;1.73;;
23868;SDS011;12115;47.128;15.422;2023-04-06T09:42:53;5.68;;;2.10;;
23868;SDS011;12115;47.128;15.422;2023-04-06T09:45:24;3.95;;;2.05;;
23868;SDS011;12115;47.128;15.422;2023-04-06T09:47:53;3.75;;;1.60;;
23868;SDS011;12115;47.128;15.422;2023-04-06T09:50:23;4.82;;;2.10;;
23868;SDS011;12115;47.128;15.422;2023-04-06T09:52:54;3.90;;;2.15;;
23868;SDS011;12115;47.128;15.422;2023-04-06T09:55:26;3.03;;;1.80;;
23868;SDS011;12115;47.128;15.422;2023-04-06T09:58:04;3.25;;;1.50;;
23868;SDS011;12115;47.128;15.422;2023-04-06T10:00:44;4.18;;;1.58;;
23868;SDS011;12115;47.128;15.422;2023-04-06T10:03:31;3.25;;;1.80;;
23868;SDS011;12115;47.128;15.422;2023-04-06T10:06:05;2.20;;;1.58;;
23868;SDS011;12115;47.128;15.422;2023-04-06T10:08:42;5.32;;;1.60;;
23868;SDS011;12115;47.128;15.422;2023-04-06T10:11:14;2.63;;;1.52;;
23868;SDS011;12115;47.128;15.422;2023-04-06T10:13:42;6.38;;;1.98;;
23868;SDS011;12115;47.128;15.422;2023-04-06T10:16:11;4.82;;;1.70;;
23868;SDS011;12115;47.128;15.422;2023-04-06T10:18:42;2.63;;;1.60;;
23868;SDS011;12115;47.128;15.422;2023-04-06T10:21:23;6.38;;;1.70;;
23868;SDS011;12115;47.128;15.422;2023-04-06T10:24:01;2.42;;;1.60;;
23868;SDS011;12115;47.128;15.422;2023-04-06T10:26:33;3.33;;;1.50;;
23868;SDS011;12115;47.128;15.422;2023-04-06T10:31:56;2.10;;;1.50;;
23868;SDS011;12115;47.128;15.422;2023-04-06T10:37:45;1.63;;;1.25;;
23868;SDS011;12115;47.128;15.422;2023-04-06T10:40:35;2.95;;;1.30;;
23868;SDS011;12115;47.128;15.422;2023-04-06T10:45:40;1.77;;;1.27;;
23868;SDS011;12115;47.128;15.422;2023-04-06T10:48:14;1.95;;;1.20;;
23868;SDS011;12115;47.128;15.422;2023-04-06T10:51:02;3.92;;;1.30;;
23868;SDS011;12115;47.128;15.422;2023-04-06T10:53:36;2.28;;;1.55;;
23868;SDS011;12115;47.128;15.422;2023-04-06T10:56:04;2.97;;;1.45;;
23868;SDS011;12115;47.128;15.422;2023-04-06T10:58:38;2.38;;;1.50;;
23868;SDS011;12115;47.128;15.422;2023-04-06T11:01:15;2.53;;;1.30;;
23868;SDS011;12115;47.128;15.422;2023-04-06T11:06:26;1.30;;;1.20;;
23868;SDS011;12115;47.128;15.422;2023-04-06T11:08:55;2.22;;;1.42;;
23868;SDS011;12115;47.128;15.422;2023-04-06T11:11:24;7.97;;;1.40;;
23868;SDS011;12115;47.128;15.422;2023-04-06T11:13:54;3.03;;;1.55;;
23868;SDS011;12115;47.128;15.422;2023-04-06T11:16:25;5.13;;;1.30;;
23868;SDS011;12115;47.128;15.422;2023-04-06T11:19:00;1.70;;;1.05;;
23868;SDS011;12115;47.128;15.422;2023-04-06T11:29:11;2.75;;;1.20;;
23868;SDS011;12115;47.128;15.422;2023-04-06T11:31:40;2.25;;;1.20;;
23868;SDS011;12115;47.128;15.422;2023-04-06T11:34:09;3.40;;;0.95;;
23868;SDS011;12115;47.128;15.422;2023-04-06T11:36:43;2.60;;;1.00;;
23868;SDS011;12115;47.128;15.422;2023-04-06T11:39:12;2.17;;;1.15;;
23868;SDS011;12115;47.128;15.422;2023-04-06T11:41:40;3.17;;;1.10;;
23868;SDS011;12115;47.128;15.422;2023-04-06T11:44:11;3.53;;;1.10;;
23868;SDS011;12115;47.128;15.422;2023-04-06T11:46:41;2.38;;;1.08;;
23868;SDS011;12115;47.128;15.422;2023-04-06T11:49:18;2.03;;;1.25;;
23868;SDS011;12115;47.128;15.422;2023-04-06T11:54:47;2.22;;;1.20;;
23868;SDS011;12115;47.128;15.422;2023-04-06T11:57:17;1.90;;;1.17;;
23868;SDS011;12115;47.128;15.422;2023-04-06T11:59:45;5.95;;;1.15;;
23868;SDS011;12115;47.128;15.422;2023-04-06T12:02:13;1.27;;;1.00;;
23868;SDS011;12115;47.128;15.422;2023-04-06T12:04:41;1.73;;;1.05;;
23868;SDS011;12115;47.128;15.422;2023-04-06T12:07:08;2.20;;;1.20;;
23868;SDS011;12115;47.128;15.422;2023-04-06T12:09:36;3.92;;;1.13;;
23868;SDS011;12115;47.128;15.422;2023-04-06T12:12:03;2.88;;;0.90;;
23868;SDS011;12115;47.128;15.422;2023-04-06T12:14:32;2.30;;;1.13;;
23868;SDS011;12115;47.128;15.422;2023-04-06T12:17:00;2.00;;;1.05;;
23868;SDS011;12115;47.128;15.422;2023-04-06T12:19:27;1.73;;;0.80;;
23868;SDS011;12115;47.128;15.422;2023-04-06T12:22:02;1.30;;;0.90;;
23868;SDS011;12115;47.128;15.422;2023-04-06T12:24:31;2.30;;;1.20;;
23868;SDS011;12115;47.128;15.422;2023-04-06T12:26:58;2.78;;;1.23;;
23868;SDS011;12115;47.128;15.422;2023-04-06T12:29:36;3.33;;;1.02;;
23868;SDS011;12115;47.128;15.422;2023-04-06T12:32:04;2.75;;;1.00;;
23868;SDS011;12115;47.128;15.422;2023-04-06T12:34:33;2.67;;;0.90;;
23868;SDS011;12115;47.128;15.422;2023-04-06T12:37:00;2.03;;;1.00;;
23868;SDS011;12115;47.128;15.422;2023-04-06T12:39:28;2.63;;;0.82;;
23868;SDS011;12115;47.128;15.422;2023-04-06T12:41:55;1.63;;;0.80;;
23868;SDS011;12115;47.128;15.422;2023-04-06T12:44:24;2.55;;;1.05;;
23868;SDS011;12115;47.128;15.422;2023-04-06T12:46:53;3.45;;;0.90;;
23868;SDS011;12115;47.128;15.422;2023-04-06T12:49:40;1.40;;;0.95;;
23868;SDS011;12115;47.128;15.422;2023-04-06T12:52:08;0.80;;;0.60;;
23868;SDS011;12115;47.128;15.422;2023-04-06T12:54:37;1.88;;;1.00;;
23868;SDS011;12115;47.128;15.422;2023-04-06T12:57:05;2.25;;;0.90;;
23868;SDS011;12115;47.128;15.422;2023-04-06T12:59:32;1.23;;;0.90;;
23868;SDS011;12115;47.128;15.422;2023-04-06T13:02:03;1.55;;;1.00;;
23868;SDS011;12115;47.128;15.422;2023-04-06T13:04:31;3.28;;;0.85;;
23868;SDS011;12115;47.128;15.422;2023-04-06T13:07:06;2.17;;;0.88;;
23868;SDS011;12115;47.128;15.422;2023-04-06T13:09:48;2.65;;;1.02;;
23868;SDS011;12115;47.128;15.422;2023-04-06T13:12:16;2.72;;;1.02;;
23868;SDS011;12115;47.128;15.422;2023-04-06T13:14:44;0.98;;;0.70;;
23868;SDS011;12115;47.128;15.422;2023-04-06T13:17:17;3.33;;;0.82;;
23868;SDS011;12115;47.128;15.422;2023-04-06T13:19:48;1.95;;;1.00;;
23868;SDS011;12115;47.128;15.422;2023-04-06T13:22:15;1.13;;;0.90;;
23868;SDS011;12115;47.128;15.422;2023-04-06T13:24:43;1.17;;;0.90;;
23868;SDS011;12115;47.128;15.422;2023-04-06T13:27:11;2.50;;;0.90;;
23868;SDS011;12115;47.128;15.422;2023-04-06T13:29:39;1.48;;;0.93;;
23868;SDS011;12115;47.128;15.422;2023-04-06T13:32:06;1.88;;;0.85;;
23868;SDS011;12115;47.128;15.422;2023-04-06T13:34:36;1.83;;;0.80;;
23868;SDS011;12115;47.128;15.422;2023-04-06T13:37:04;2.92;;;0.90;;
23868;SDS011;12115;47.128;15.422;2023-04-06T13:39:31;3.80;;;1.00;;
23868;SDS011;12115;47.128;15.422;2023-04-06T13:42:00;1.40;;;1.00;;
23868;SDS011;12115;47.128;15.422;2023-04-06T13:44:29;1.73;;;1.10;;
23868;SDS011;12115;47.128;15.422;2023-04-06T13:47:00;1.05;;;0.80;;
23868;SDS011;12115;47.128;15.422;2023-04-06T13:49:27;1.88;;;0.80;;
23868;SDS011;12115;47.128;15.422;2023-04-06T13:52:07;1.98;;;1.10;;
23868;SDS011;12115;47.128;15.422;2023-04-06T13:54:36;0.95;;;0.80;;
23868;SDS011;12115;47.128;15.422;2023-04-06T14:03:27;1.42;;;0.80;;
23868;SDS011;12115;47.128;15.422;2023-04-06T14:05:58;2.28;;;1.10;;
23868;SDS011;12115;47.128;15.422;2023-04-06T14:08:41;1.63;;;0.98;;
23868;SDS011;12115;47.128;15.422;2023-04-06T14:11:12;3.35;;;1.10;;
23868;SDS011;12115;47.128;15.422;2023-04-06T14:13:40;2.22;;;1.00;;
23868;SDS011;12115;47.128;15.422;2023-04-06T14:16:09;1.27;;;0.90;;
23868;SDS011;12115;47.128;15.422;2023-04-06T14:18:37;3.80;;;0.80;;
23868;SDS011;12115;47.128;15.422;2023-04-06T14:21:04;1.42;;;0.90;;
23868;SDS011;12115;47.128;15.422;2023-04-06T14:23:32;2.65;;;0.70;;
23868;SDS011;12115;47.128;15.422;2023-04-06T14:26:04;2.80;;;0.80;;
23868;SDS011;12115;47.128;15.422;2023-04-06T14:28:32;0.77;;;0.60;;
23868;SDS011;12115;47.128;15.422;2023-04-06T14:31:01;2.95;;;0.80;;
23868;SDS011;12115;47.128;15.422;2023-04-06T14:33:36;1.20;;;0.70;;
23868;SDS011;12115;47.128;15.422;2023-04-06T14:36:04;1.33;;;0.73;;
23868;SDS011;12115;47.128;15.422;2023-04-06T14:38:33;2.28;;;0.75;;
23868;SDS011;12115;47.128;15.422;2023-04-06T14:41:01;0.88;;;0.80;;
23868;SDS011;12115;47.128;15.422;2023-04-06T14:43:29;2.42;;;0.80;;
23868;SDS011;12115;47.128;15.422;2023-04-06T14:46:03;3.85;;;1.10;;
23868;SDS011;12115;47.128;15.422;2023-04-06T14:48:31;1.52;;;0.80;;
23868;SDS011;12115;47.128;15.422;2023-04-06T14:51:11;3.50;;;0.80;;
23868;SDS011;12115;47.128;15.422;2023-04-06T14:53:39;1.55;;;0.98;;
23868;SDS011;12115;47.128;15.422;2023-04-06T14:56:07;1.48;;;0.70;;
23868;SDS011;12115;47.128;15.422;2023-04-06T14:58:34;2.75;;;1.10;;
23868;SDS011;12115;47.128;15.422;2023-04-06T15:01:02;1.70;;;0.77;;
23868;SDS011;12115;47.128;15.422;2023-04-06T15:03:29;1.17;;;0.73;;
23868;SDS011;12115;47.128;15.422;2023-04-06T15:05:57;1.45;;;0.95;;
23868;SDS011;12115;47.128;15.422;2023-04-06T15:08:25;2.40;;;0.88;;
23868;SDS011;12115;47.128;15.422;2023-04-06T15:10:53;1.80;;;0.68;;
23868;SDS011;12115;47.128;15.422;2023-04-06T15:13:23;4.03;;;0.90;;
23868;SDS011;12115;47.128;15.422;2023-04-06T15:15:50;1.92;;;0.70;;
23868;SDS011;12115;47.128;15.422;2023-04-06T15:18:18;1.25;;;0.93;;
23868;SDS011;12115;47.128;15.422;2023-04-06T15:20:45;1.45;;;0.65;;
23868;SDS011;12115;47.128;15.422;2023-04-06T15:23:13;1.60;;;0.80;;
23868;SDS011;12115;47.128;15.422;2023-04-06T15:25:40;1.38;;;0.98;;
23868;SDS011;12115;47.128;15.422;2023-04-06T15:28:08;1.13;;;0.80;;
23868;SDS011;12115;47.128;15.422;2023-04-06T15:30:39;2.00;;;1.60;;
23868;SDS011;12115;47.128;15.422;2023-04-06T15:33:07;5.57;;;4.30;;
23868;SDS011;12115;47.128;15.422;2023-04-06T15:35:35;1.92;;;0.90;;
23868;SDS011;12115;47.128;15.422;2023-04-06T15:38:11;3.13;;;0.95;;
23868;SDS011;12115;47.128;15.422;2023-04-06T15:40:46;1.13;;;0.70;;
23868;SDS011;12115;47.128;15.422;2023-04-06T15:43:15;2.25;;;1.00;;